Time;durP1;ratioP1;P1;durP2;ratioP2;P2;SDS_P1;SDS_P2;PMS_P1;PMS_P2;Temp;Humidity;BMP_temperature;BMP_pressure;BME280_temperature;BME280_humidity;BME280_pressure;Samples;Min_cycle;Max_cycle;Signal;HPM_P1;HPM_P2
2021/09/18 00:01:49;;;;;;;112.85;66.72;;;;;;;14.94;100.00;101153.25;4955089;28;20047;-81
2021/09/18 00:04:14;;;;;;;104.55;63.78;;;;;;;14.97;100.00;101161.81;4950164;28;20098;-82
2021/09/18 00:06:40;;;;;;;102.93;64.88;;;;;;;14.97;100.00;101151.00;4952554;28;20062;-81
2021/09/18 00:09:06;;;;;;;111.00;67.75;;;;;;;14.99;100.00;101162.47;4948770;28;20047;-85
2021/09/18 00:11:31;;;;;;;109.00;67.03;;;;;;;14.97;100.00;101156.41;4948493;28;20078;-82
2021/09/18 00:13:57;;;;;;;112.93;64.07;;;;;;;14.95;100.00;101165.72;4946794;28;20134;-81
2021/09/18 00:16:22;;;;;;;111.43;66.72;;;;;;;14.93;100.00;101168.59;4927022;29;20058;-82
2021/09/18 00:18:48;;;;;;;113.95;67.55;;;;;;;14.96;100.00;101168.25;4938240;28;20150;-82
2021/09/18 00:21:13;;;;;;;112.40;69.20;;;;;;;14.99;100.00;101167.88;4933048;28;20062;-82
2021/09/18 00:23:38;;;;;;;118.57;70.05;;;;;;;14.96;100.00;101162.00;4931803;29;20127;-82
2021/09/18 00:26:04;;;;;;;115.25;68.40;;;;;;;14.98;100.00;101166.19;4930721;29;20491;-82
2021/09/18 00:28:29;;;;;;;107.53;65.47;;;;;;;14.94;100.00;101167.59;4936473;29;20050;-81
2021/09/18 00:30:55;;;;;;;112.40;67.70;;;;;;;14.94;100.00;101162.19;4936255;28;20466;-81
2021/09/18 00:33:20;;;;;;;108.82;66.63;;;;;;;14.88;100.00;101154.81;4934035;29;20458;-82
2021/09/18 00:35:46;;;;;;;109.30;63.55;;;;;;;14.83;100.00;101162.63;4935102;29;20070;-81
2021/09/18 00:38:12;;;;;;;117.53;68.22;;;;;;;14.82;100.00;101169.91;4953847;28;20078;-83
2021/09/18 00:40:38;;;;;;;106.75;64.60;;;;;;;14.80;100.00;101168.41;4953075;28;20506;-83
2021/09/18 00:43:03;;;;;;;103.10;65.05;;;;;;;14.75;100.00;101165.41;4949250;28;20082;-82
2021/09/18 00:45:29;;;;;;;108.78;65.63;;;;;;;14.73;100.00;101159.34;4950396;28;20086;-82
2021/09/18 00:47:54;;;;;;;116.10;66.35;;;;;;;14.67;100.00;101163.59;4942654;28;20082;-81
2021/09/18 00:50:19;;;;;;;111.90;63.58;;;;;;;14.63;100.00;101168.53;4952327;28;20047;-81
2021/09/18 00:52:45;;;;;;;103.63;63.65;;;;;;;14.56;100.00;101173.00;4948161;28;20051;-81
2021/09/18 00:55:13;;;;;;;104.85;62.85;;;;;;;14.53;100.00;101170.66;4945792;28;20062;-82
2021/09/18 00:57:39;;;;;;;98.53;59.92;;;;;;;14.51;100.00;101171.81;4949289;28;20079;-82
2021/09/18 01:00:06;;;;;;;90.82;57.58;;;;;;;14.44;100.00;101177.09;4941588;28;20046;-83
2021/09/18 01:02:31;;;;;;;102.55;62.28;;;;;;;14.42;100.00;101176.44;4952006;28;20051;-82
2021/09/18 01:04:57;;;;;;;98.95;58.83;;;;;;;14.38;100.00;101175.94;4951772;28;20174;-82
2021/09/18 01:07:23;;;;;;;98.80;60.67;;;;;;;14.33;100.00;101177.53;4950881;28;20055;-83
2021/09/18 01:09:50;;;;;;;102.43;59.35;;;;;;;14.31;100.00;101171.47;4949119;28;20066;-85
2021/09/18 01:12:15;;;;;;;92.35;55.63;;;;;;;14.25;100.00;101172.19;4951293;28;20047;-82
2021/09/18 01:14:46;;;;;;;103.60;61.10;;;;;;;14.18;100.00;101170.22;4955053;28;20281;-82
2021/09/18 01:17:13;;;;;;;100.80;60.72;;;;;;;14.13;100.00;101167.19;4954758;28;20051;-81
2021/09/18 01:19:38;;;;;;;91.38;57.90;;;;;;;14.11;100.00;101174.63;4953590;28;20051;-81
2021/09/18 01:22:06;;;;;;;97.50;59.10;;;;;;;14.08;100.00;101169.59;4951342;28;20043;-85
2021/09/18 01:24:32;;;;;;;89.22;55.50;;;;;;;14.02;100.00;101169.47;4951948;28;20051;-83
2021/09/18 01:26:57;;;;;;;90.15;55.78;;;;;;;13.96;100.00;101168.31;4951128;28;20043;-83
2021/09/18 01:29:23;;;;;;;94.53;56.80;;;;;;;13.90;100.00;101166.31;4956499;28;20049;-81
2021/09/18 01:31:48;;;;;;;94.53;59.08;;;;;;;13.88;100.00;101168.34;4952724;28;20100;-82
2021/09/18 01:34:22;;;;;;;91.15;57.72;;;;;;;13.85;100.00;101168.72;4952170;28;20054;-84
2021/09/18 01:36:49;;;;;;;92.47;59.97;;;;;;;13.81;100.00;101179.03;4950494;28;20047;-81
2021/09/18 01:39:15;;;;;;;102.60;61.05;;;;;;;13.73;100.00;101177.19;4940061;28;20039;-81
2021/09/18 01:41:43;;;;;;;94.30;58.13;;;;;;;13.73;100.00;101177.19;4955092;28;20047;-81
2021/09/18 01:44:10;;;;;;;97.65;58.38;;;;;;;13.68;100.00;101179.56;4954828;28;20051;-85
2021/09/18 01:46:35;;;;;;;93.95;59.47;;;;;;;13.68;100.00;101178.72;4956668;28;20043;-81
2021/09/18 01:49:00;;;;;;;91.10;58.00;;;;;;;13.62;100.00;101184.81;4932584;28;20048;-81
2021/09/18 01:51:29;;;;;;;93.72;57.30;;;;;;;13.57;100.00;101179.94;4936775;28;20062;-82
2021/09/18 01:53:54;;;;;;;91.70;57.72;;;;;;;13.53;100.00;101184.84;4926250;28;20122;-81
2021/09/18 01:56:20;;;;;;;93.45;57.10;;;;;;;13.49;100.00;101178.13;4925402;28;20419;-84
2021/09/18 01:58:45;;;;;;;100.38;60.88;;;;;;;13.49;100.00;101179.97;4925228;28;20043;-81
2021/09/18 02:01:10;;;;;;;102.32;60.45;;;;;;;13.46;100.00;101186.53;4929406;28;20596;-82
2021/09/18 02:03:36;;;;;;;113.78;66.13;;;;;;;13.41;100.00;101180.03;4925880;28;20103;-83
2021/09/18 02:06:02;;;;;;;221.15;69.30;;;;;;;13.36;100.00;101179.69;4926391;28;20048;-81
2021/09/18 02:08:27;;;;;;;380.35;79.72;;;;;;;13.31;100.00;101183.72;4924658;28;20066;-81
2021/09/18 02:10:55;;;;;;;289.75;73.30;;;;;;;13.24;100.00;101177.34;4922120;28;20459;-83
2021/09/18 02:13:21;;;;;;;117.53;65.95;;;;;;;13.25;100.00;101184.44;4925710;28;20052;-85
2021/09/18 02:15:47;;;;;;;112.20;64.80;;;;;;;13.24;100.00;101182.72;4926568;29;20059;-82
2021/09/18 02:18:13;;;;;;;156.43;72.18;;;;;;;13.22;100.00;101179.34;4925243;28;20059;-83
2021/09/18 02:20:41;;;;;;;136.15;70.90;;;;;;;13.19;100.00;101176.16;4927268;28;20411;-83
2021/09/18 02:23:09;;;;;;;116.40;65.90;;;;;;;13.16;100.00;101173.81;4924127;28;20055;-82
2021/09/18 02:25:35;;;;;;;202.57;73.13;;;;;;;13.09;100.00;101179.91;4926193;29;20035;-83
2021/09/18 02:28:00;;;;;;;155.75;71.57;;;;;;;13.09;100.00;101179.91;4925246;28;20087;-83
2021/09/18 02:30:29;;;;;;;148.27;71.00;;;;;;;13.05;100.00;101178.53;4926208;28;20511;-82
2021/09/18 02:32:56;;;;;;;117.00;69.10;;;;;;;13.02;100.00;101172.66;4925330;29;20059;-85
2021/09/18 02:35:26;;;;;;;136.32;67.13;;;;;;;12.98;100.00;101174.03;4925490;28;20044;-81
2021/09/18 02:37:55;;;;;;;;;;;;;;;12.97;100.00;101175.00;4928641;28;20790;-81
2021/09/18 02:40:22;;;;;;;218.80;77.18;;;;;;;12.83;100.00;101171.16;4938931;28;19970;-81
2021/09/18 02:42:50;;;;;;;253.02;77.30;;;;;;;12.79;100.00;101173.34;4932443;28;20522;-82
2021/09/18 02:45:17;;;;;;;268.48;77.10;;;;;;;12.76;100.00;101171.00;4934542;28;20055;-81
2021/09/18 02:47:43;;;;;;;142.20;71.20;;;;;;;12.80;100.00;101169.66;4943332;28;20053;-81
2021/09/18 02:50:11;;;;;;;133.93;70.57;;;;;;;12.79;100.00;101167.97;4943607;28;20075;-82
2021/09/18 02:52:36;;;;;;;128.00;70.80;;;;;;;12.79;100.00;101167.97;4945785;28;20046;-82
2021/09/18 02:55:03;;;;;;;119.80;67.82;;;;;;;12.74;100.00;101164.94;4944814;28;20035;-82
2021/09/18 02:57:28;;;;;;;117.20;65.07;;;;;;;12.70;100.00;101163.59;4944389;28;20043;-84
2021/09/18 02:59:53;;;;;;;116.07;65.35;;;;;;;12.68;100.00;101171.00;4943869;28;20055;-82
2021/09/18 03:02:19;;;;;;;123.43;67.70;;;;;;;12.69;100.00;101170.00;4945359;28;20138;-82
2021/09/18 03:04:44;;;;;;;116.22;67.15;;;;;;;12.67;100.00;101163.94;4945749;28;20062;-82
2021/09/18 03:07:11;;;;;;;123.53;67.32;;;;;;;12.65;100.00;101165.94;4943655;28;20425;-86
2021/09/18 03:09:36;;;;;;;174.10;70.78;;;;;;;12.62;100.00;101163.59;4944903;28;20668;-81
2021/09/18 03:12:02;;;;;;;116.20;66.60;;;;;;;12.63;100.00;101163.44;4942905;28;20164;-83
2021/09/18 03:14:27;;;;;;;162.93;70.97;;;;;;;12.65;100.00;101168.66;4942752;28;20380;-85
2021/09/18 03:16:53;;;;;;;166.00;72.68;;;;;;;12.60;100.00;101163.78;4944865;28;20939;-82
2021/09/18 03:19:18;;;;;;;147.02;67.82;;;;;;;12.61;100.00;101164.63;4946319;28;20482;-85
2021/09/18 03:21:43;;;;;;;169.25;74.97;;;;;;;12.59;100.00;101158.56;4956470;28;20040;-81
2021/09/18 03:24:09;;;;;;;440.25;90.53;;;;;;;12.59;100.00;101163.94;4959158;28;20067;-81
2021/09/18 03:26:35;;;;;;;146.55;70.47;;;;;;;12.60;100.00;101162.91;4956846;28;20039;-82
2021/09/18 03:29:02;;;;;;;164.75;73.55;;;;;;;12.58;100.00;101160.41;4955286;28;20138;-85
2021/09/18 03:31:28;;;;;;;138.02;73.57;;;;;;;12.60;100.00;101154.84;4949735;28;20110;-81
2021/09/18 03:33:53;;;;;;;160.48;70.78;;;;;;;12.60;100.00;101158.41;4958852;28;20043;-82
2021/09/18 03:36:18;;;;;;;160.55;74.53;;;;;;;12.60;100.00;101153.00;4948738;28;20051;-82
2021/09/18 03:38:44;;;;;;;319.88;84.93;;;;;;;12.56;100.00;101153.50;4951526;28;20058;-81
2021/09/18 03:41:09;;;;;;;396.85;88.47;;;;;;;12.52;100.00;101157.56;4953786;28;21688;-81
2021/09/18 03:43:34;;;;;;;225.18;76.53;;;;;;;12.52;100.00;101160.25;4952425;28;20039;-83
2021/09/18 03:46:00;;;;;;;302.35;82.70;;;;;;;12.51;100.00;101158.56;4959097;28;20050;-81
2021/09/18 03:48:25;;;;;;;248.25;78.38;;;;;;;12.50;100.00;101162.25;4958871;28;20454;-82
2021/09/18 03:50:51;;;;;;;165.30;74.82;;;;;;;12.51;100.00;101158.56;4958165;28;20404;-83
2021/09/18 03:53:16;;;;;;;327.92;83.18;;;;;;;12.51;100.00;101153.16;4958052;28;20490;-82
2021/09/18 03:55:41;;;;;;;260.58;81.90;;;;;;;12.48;100.00;101148.13;4962428;28;20081;-82
2021/09/18 03:58:07;;;;;;;170.63;73.32;;;;;;;12.50;100.00;101148.81;4957696;28;20049;-84
2021/09/18 04:00:33;;;;;;;290.27;81.70;;;;;;;12.48;100.00;101148.13;4959508;28;20053;-82
2021/09/18 04:02:58;;;;;;;184.43;75.15;;;;;;;12.49;100.00;101152.50;4957006;28;20498;-83
2021/09/18 04:05:23;;;;;;;278.60;82.25;;;;;;;12.49;100.00;101155.22;4955850;28;20047;-83
2021/09/18 04:07:49;;;;;;;244.00;83.13;;;;;;;12.47;100.00;101147.28;4956638;28;20544;-82
2021/09/18 04:10:14;;;;;;;215.35;80.80;;;;;;;12.48;100.00;101154.34;4963180;28;20712;-83
2021/09/18 04:12:40;;;;;;;161.82;74.50;;;;;;;12.48;100.00;101151.66;4959036;28;20107;-82
2021/09/18 04:15:06;;;;;;;157.57;72.43;;;;;;;12.46;100.00;101151.00;4960858;28;20093;-84
2021/09/18 04:17:31;;;;;;;150.90;70.97;;;;;;;12.46;100.00;101160.91;4964716;28;20047;-82
2021/09/18 04:19:57;;;;;;;134.02;71.50;;;;;;;12.44;100.00;101163.78;4961269;28;20114;-82
2021/09/18 04:22:22;;;;;;;147.60;73.30;;;;;;;12.41;100.00;101159.56;4962701;28;20402;-86
2021/09/18 04:24:47;;;;;;;182.50;77.45;;;;;;;12.42;100.00;101165.78;4964749;28;20053;-83
2021/09/18 04:27:13;;;;;;;118.70;66.13;;;;;;;12.43;100.00;101159.41;4959560;28;20086;-82
2021/09/18 04:29:39;;;;;;;128.93;67.30;;;;;;;12.40;100.00;101157.88;4948371;28;20048;-83
2021/09/18 04:32:05;;;;;;;120.55;67.63;;;;;;;12.38;100.00;101159.91;4932396;28;20055;-83
2021/09/18 04:34:30;;;;;;;119.63;66.57;;;;;;;12.37;100.00;101158.22;4949070;28;20126;-86
2021/09/18 04:36:59;;;;;;;166.85;73.72;;;;;;;12.34;100.00;101161.25;4948274;28;20557;-82
2021/09/18 04:39:25;;;;;;;121.28;65.15;;;;;;;12.32;100.00;101155.19;4949867;28;20442;-83
2021/09/18 04:41:50;;;;;;;123.20;67.70;;;;;;;12.29;100.00;101163.59;4948884;28;20054;-83
2021/09/18 04:44:16;;;;;;;120.57;66.38;;;;;;;12.23;100.00;101169.66;4948599;28;20137;-82
2021/09/18 04:46:41;;;;;;;245.52;73.95;;;;;;;12.23;100.00;101171.47;4945235;28;20101;-84
2021/09/18 04:49:09;;;;;;;361.60;79.07;;;;;;;12.14;100.00;101174.16;4947284;28;20147;-84
2021/09/18 04:51:34;;;;;;;261.30;74.50;;;;;;;12.10;100.00;101175.50;4949822;28;20130;-82
2021/09/18 04:54:01;;;;;;;220.20;69.97;;;;;;;12.07;100.00;101170.44;4947065;28;20483;-84
2021/09/18 04:56:27;;;;;;;348.42;79.32;;;;;;;12.06;100.00;101170.63;4949784;28;20047;-82
2021/09/18 04:58:52;;;;;;;375.95;83.22;;;;;;;12.05;100.00;101164.38;4948277;28;20063;-82
2021/09/18 05:01:18;;;;;;;499.58;87.85;;;;;;;12.00;100.00;101176.63;4943403;28;20747;-83
2021/09/18 05:03:43;;;;;;;221.70;75.70;;;;;;;12.00;100.00;101188.25;4947628;28;20105;-82
2021/09/18 05:06:09;;;;;;;114.70;60.58;;;;;;;11.99;100.00;101188.41;4950415;28;20130;-83
2021/09/18 05:08:34;;;;;;;114.95;65.45;;;;;;;12.01;100.00;101191.78;4952651;28;20056;-84
2021/09/18 05:10:59;;;;;;;107.93;63.15;;;;;;;12.03;100.00;101195.16;4958013;28;20152;-87
2021/09/18 05:13:25;;;;;;;97.53;60.75;;;;;;;12.01;100.00;101200.69;4968352;28;20047;-84
2021/09/18 05:15:50;;;;;;;113.63;63.42;;;;;;;11.92;100.00;101197.13;4971796;28;20043;-82
2021/09/18 05:18:16;;;;;;;107.38;61.22;;;;;;;11.94;100.00;101199.69;4943620;28;20138;-85
2021/09/18 05:20:42;;;;;;;105.63;60.28;;;;;;;11.93;100.00;101203.34;4960445;28;20081;-84
2021/09/18 05:23:07;;;;;;;114.75;64.13;;;;;;;11.95;100.00;101196.81;4959693;28;20054;-83
2021/09/18 05:25:33;;;;;;;113.95;62.17;;;;;;;11.97;100.00;101202.03;4958668;28;20055;-83
2021/09/18 05:27:58;;;;;;;109.55;63.30;;;;;;;12.02;100.00;101210.44;4964805;28;20043;-82
2021/09/18 05:30:24;;;;;;;120.88;64.75;;;;;;;12.04;100.00;101203.06;4967609;28;20043;-83
2021/09/18 05:32:49;;;;;;;131.40;66.80;;;;;;;12.06;100.00;101202.91;4968798;28;20067;-81
2021/09/18 05:35:14;;;;;;;127.93;65.90;;;;;;;12.11;100.00;101203.22;4968992;28;20272;-83
2021/09/18 05:37:40;;;;;;;278.23;77.93;;;;;;;12.11;100.00;101205.91;4967435;28;20047;-86
2021/09/18 05:40:06;;;;;;;274.00;75.63;;;;;;;12.11;100.00;101209.47;4963855;28;20063;-84
2021/09/18 05:42:32;;;;;;;183.45;69.45;;;;;;;12.11;100.00;101212.16;4961821;28;20040;-82
2021/09/18 05:44:58;;;;;;;129.27;66.22;;;;;;;12.11;100.00;101214.00;4950691;28;20066;-86
2021/09/18 05:47:24;;;;;;;189.65;70.53;;;;;;;12.16;100.00;101219.72;4947164;28;20085;-83
2021/09/18 05:49:49;;;;;;;132.90;67.70;;;;;;;12.18;100.00;101212.34;4946531;28;20050;-85
2021/09/18 05:52:15;;;;;;;160.82;70.65;;;;;;;12.18;100.00;101215.88;4957727;28;20063;-82
2021/09/18 05:54:40;;;;;;;116.28;65.07;;;;;;;12.21;100.00;101220.06;4958709;28;20043;-84
2021/09/18 05:57:05;;;;;;;140.80;65.53;;;;;;;12.23;100.00;101226.16;4961025;28;20046;-82
2021/09/18 05:59:31;;;;;;;115.82;62.80;;;;;;;12.17;100.00;101224.97;4964451;28;20062;-83
2021/09/18 06:01:56;;;;;;;113.30;60.35;;;;;;;12.19;100.00;101232.84;4962185;28;20054;-85
2021/09/18 06:04:21;;;;;;;114.88;63.55;;;;;;;12.17;100.00;101232.19;4972526;28;20047;-85
2021/09/18 06:06:47;;;;;;;135.77;61.72;;;;;;;12.17;100.00;101234.88;4958987;28;20134;-83
2021/09/18 06:09:12;;;;;;;125.45;64.90;;;;;;;12.17;100.00;101226.81;4958842;28;20030;-82
2021/09/18 06:11:38;;;;;;;117.30;62.20;;;;;;;12.17;100.00;101230.34;4958850;28;20043;-83
2021/09/18 06:14:03;;;;;;;112.72;60.78;;;;;;;12.21;100.00;101233.53;4958565;28;20035;-84
2021/09/18 06:16:29;;;;;;;105.15;61.53;;;;;;;12.23;100.00;101234.22;4953878;28;20063;-86
2021/09/18 06:18:54;;;;;;;106.43;59.28;;;;;;;12.29;100.00;101240.78;4947427;28;20074;-83
2021/09/18 06:21:20;;;;;;;96.97;58.90;;;;;;;12.34;100.00;101233.91;4953595;28;20652;-83
2021/09/18 06:23:47;;;;;;;97.25;57.95;;;;;;;12.39;100.00;101238.78;4953498;28;20053;-82
2021/09/18 06:26:14;;;;;;;94.50;58.55;;;;;;;12.41;100.00;101240.31;4945177;28;20055;-83
2021/09/18 06:28:40;;;;;;;101.40;59.63;;;;;;;12.47;100.00;101237.97;4945439;28;20055;-84
2021/09/18 06:31:06;;;;;;;96.00;57.65;;;;;;;12.53;100.00;101243.53;4951485;28;20062;-83
2021/09/18 06:33:31;;;;;;;102.25;57.20;;;;;;;12.60;100.00;101241.00;4951359;28;20051;-83
2021/09/18 06:35:57;;;;;;;90.25;55.50;;;;;;;12.64;100.00;101239.66;4950192;28;20058;-82
2021/09/18 06:38:22;;;;;;;96.65;56.47;;;;;;;12.69;100.00;101247.22;4945520;28;20117;-84
2021/09/18 06:40:53;;;;;;;95.22;56.75;;;;;;;12.70;100.00;101247.06;4951521;28;20468;-82
2021/09/18 06:43:20;;;;;;;100.95;56.67;;;;;;;12.73;100.00;101249.44;4945050;28;20466;-83
2021/09/18 06:45:46;;;;;;;102.25;56.97;;;;;;;12.74;100.00;101247.56;4943528;28;20092;-83
2021/09/18 06:48:12;;;;;;;88.78;52.22;;;;;;;12.74;100.00;101244.88;4943965;28;20047;-83
2021/09/18 06:50:38;;;;;;;88.47;54.33;;;;;;;12.78;100.00;101249.78;4943546;28;20824;-85
2021/09/18 06:53:04;;;;;;;90.97;55.08;;;;;;;12.79;100.00;101247.91;4945144;28;20167;-84
2021/09/18 06:55:30;;;;;;;98.72;56.28;;;;;;;12.86;100.00;101255.16;4945336;28;20055;-83
2021/09/18 06:57:56;;;;;;;89.57;51.63;;;;;;;12.91;100.00;101268.13;4943791;28;20379;-83
2021/09/18 07:00:22;;;;;;;89.20;52.90;;;;;;;12.96;100.00;101260.38;4947763;28;20066;-83
2021/09/18 07:02:48;;;;;;;85.95;52.75;;;;;;;13.02;100.00;101256.16;4926378;28;20455;-86
2021/09/18 07:05:13;;;;;;;84.80;51.03;;;;;;;13.07;100.00;101257.34;4943010;28;20051;-84
2021/09/18 07:07:39;;;;;;;83.45;49.17;;;;;;;13.12;100.00;101259.53;4948597;28;20621;-82
2021/09/18 07:10:05;;;;;;;81.18;49.78;;;;;;;13.24;100.00;101257.34;4943671;28;20043;-86
2021/09/18 07:12:31;;;;;;;85.95;50.90;;;;;;;13.26;100.00;101255.34;4944544;28;20138;-82
2021/09/18 07:14:56;;;;;;;80.60;47.13;;;;;;;13.32;100.00;101258.22;4942183;28;20131;-84
2021/09/18 07:17:21;;;;;;;82.65;49.58;;;;;;;13.41;100.00;101261.72;4943535;28;20067;-82
2021/09/18 07:19:48;;;;;;;76.95;47.00;;;;;;;13.52;100.00;101260.50;4944179;28;20086;-84
2021/09/18 07:22:14;;;;;;;72.80;45.35;;;;;;;13.62;100.00;101257.63;4943847;28;20134;-82
2021/09/18 07:24:39;;;;;;;69.32;44.70;;;;;;;13.66;100.00;101256.25;4943698;28;20074;-84
2021/09/18 07:27:05;;;;;;;74.05;45.33;;;;;;;13.68;100.00;101259.63;4942588;28;20077;-86
2021/09/18 07:29:31;;;;;;;67.45;43.00;;;;;;;13.72;100.00;101259.13;4944122;28;20074;-82
2021/09/18 07:31:56;;;;;;;68.50;41.55;;;;;;;13.79;100.00;101261.13;4946153;28;20047;-84
2021/09/18 07:34:22;;;;;;;62.78;42.20;;;;;;;13.83;100.00;101262.44;4948173;28;20098;-82
2021/09/18 07:36:48;;;;;;;65.65;41.38;;;;;;;13.89;100.00;101262.59;4947177;28;20054;-87
2021/09/18 07:39:13;;;;;;;61.50;40.70;;;;;;;13.98;100.00;101261.56;4944588;28;20097;-83
2021/09/18 07:41:43;;;;;;;67.20;40.47;;;;;;;14.04;100.00;101265.41;4942881;28;20047;-83
2021/09/18 07:44:08;;;;;;;57.20;37.40;;;;;;;14.09;100.00;101263.00;4943735;28;20589;-82
2021/09/18 07:46:34;;;;;;;57.38;38.25;;;;;;;14.21;100.00;101266.16;4931753;28;20081;-82
2021/09/18 07:49:00;;;;;;;54.63;37.55;;;;;;;14.28;100.00;101271.72;4943927;28;20098;-85
2021/09/18 07:51:26;;;;;;;52.40;36.30;;;;;;;14.35;100.00;101272.66;4944805;28;20394;-84
2021/09/18 07:53:52;;;;;;;52.15;35.67;;;;;;;14.45;100.00;101271.44;4943533;28;20526;-83
2021/09/18 07:56:18;;;;;;;53.10;35.50;;;;;;;14.54;100.00;101266.00;4948458;28;20134;-84
2021/09/18 07:58:43;;;;;;;48.95;33.80;;;;;;;14.59;100.00;101263.63;4949802;28;20126;-85
2021/09/18 08:01:08;;;;;;;49.20;33.80;;;;;;;14.69;100.00;101263.38;4948951;28;20123;-83
2021/09/18 08:03:34;;;;;;;44.83;33.42;;;;;;;14.80;100.00;101262.97;4944204;29;20173;-83
2021/09/18 08:06:00;;;;;;;43.63;30.98;;;;;;;14.88;100.00;101268.31;4942858;28;21619;-83
2021/09/18 08:08:25;;;;;;;40.33;28.55;;;;;;;14.95;100.00;101268.41;4946959;28;20065;-83
2021/09/18 08:10:51;;;;;;;43.92;29.80;;;;;;;15.00;100.00;101266.00;4943506;28;20603;-83
2021/09/18 08:13:16;;;;;;;40.28;28.83;;;;;;;15.10;100.00;101278.25;4942311;28;20040;-84
2021/09/18 08:15:42;;;;;;;37.13;26.42;;;;;;;15.10;100.00;101275.56;4944458;28;20114;-84
2021/09/18 08:18:07;;;;;;;36.47;27.13;;;;;;;15.26;100.00;101276.41;4943138;28;20058;-82
2021/09/18 08:20:33;;;;;;;37.00;27.52;;;;;;;15.34;100.00;101268.25;4944648;28;20058;-83
2021/09/18 08:22:58;;;;;;;36.03;26.17;;;;;;;15.41;100.00;101269.16;4942161;28;20051;-84
2021/09/18 08:25:24;;;;;;;34.38;25.55;;;;;;;15.50;100.00;101278.03;4942309;28;20051;-84
2021/09/18 08:27:49;;;;;;;33.70;24.80;;;;;;;15.61;100.00;101279.44;4944608;28;20262;-83
2021/09/18 08:30:15;;;;;;;30.65;24.27;;;;;;;15.71;100.00;101280.91;4942461;28;20125;-83
2021/09/18 08:32:42;;;;;;;31.15;24.55;;;;;;;15.86;100.00;101282.78;4944276;28;20058;-83
2021/09/18 08:35:08;;;;;;;30.15;23.67;;;;;;;15.89;100.00;101285.94;4945239;28;20050;-83
2021/09/18 08:37:34;;;;;;;31.83;23.75;;;;;;;15.96;100.00;101284.13;4944947;28;20055;-86
2021/09/18 08:39:59;;;;;;;29.92;22.98;;;;;;;16.04;100.00;101285.91;4938197;28;20055;-84
2021/09/18 08:42:26;;;;;;;31.15;22.77;;;;;;;16.19;100.00;101285.91;4941750;28;20158;-85
2021/09/18 08:44:52;;;;;;;33.30;24.35;;;;;;;16.38;100.00;101288.00;4944074;28;20055;-83
2021/09/18 08:47:21;;;;;;;28.67;21.63;;;;;;;16.42;100.00;101289.28;4940434;28;20062;-85
2021/09/18 08:49:47;;;;;;;25.27;21.70;;;;;;;16.45;99.41;101282.66;4939370;28;20051;-88
2021/09/18 08:52:13;;;;;;;28.67;21.77;;;;;;;16.58;99.69;101296.38;4943003;28;20114;-87
2021/09/18 08:54:41;;;;;;;30.52;22.08;;;;;;;16.59;98.65;101286.38;4946249;28;20047;-83
2021/09/18 08:57:07;;;;;;;28.90;21.48;;;;;;;16.79;100.00;101294.75;4956617;28;20062;-84
2021/09/18 08:59:37;;;;;;;29.63;21.73;;;;;;;16.88;97.37;101282.72;4949234;28;20059;-86
2021/09/18 09:02:11;;;;;;;26.38;20.75;;;;;;;16.98;96.34;101294.09;4944816;28;20466;-82
2021/09/18 09:04:37;;;;;;;26.08;20.02;;;;;;;17.04;95.93;101295.19;4946781;28;20106;-84
2021/09/18 09:07:03;;;;;;;26.17;20.27;;;;;;;17.10;94.29;101292.53;4945731;28;20055;-84
2021/09/18 09:10:04;;;;;;;24.63;19.33;;;;;;;17.16;95.25;101299.06;4947540;28;20063;-83
2021/09/18 09:12:30;;;;;;;24.58;19.45;;;;;;;17.26;95.34;101296.84;4943851;28;20054;-83
2021/09/18 09:14:57;;;;;;;27.45;21.55;;;;;;;17.36;96.42;101297.34;4950258;28;20055;-83
2021/09/18 09:17:25;;;;;;;26.20;19.40;;;;;;;17.47;94.42;101295.97;4951691;28;20047;-86
2021/09/18 09:19:52;;;;;;;25.35;19.70;;;;;;;17.47;93.16;101303.28;4938319;28;20063;-83
2021/09/18 09:22:36;;;;;;;25.65;19.85;;;;;;;17.61;94.97;101299.63;4936603;28;20145;-85
2021/09/18 09:25:02;;;;;;;23.60;17.58;;;;;;;17.65;93.99;101294.63;4938139;28;20051;-87
2021/09/18 09:27:28;;;;;;;23.85;18.40;;;;;;;17.60;92.78;101297.91;4930247;28;20061;-83
2021/09/18 09:29:57;;;;;;;22.63;18.02;;;;;;;17.56;94.61;101302.91;4944913;28;20043;-84
2021/09/18 09:32:34;;;;;;;23.48;18.20;;;;;;;17.50;95.76;101305.59;4942680;28;20075;-84
2021/09/18 09:35:12;;;;;;;21.17;17.73;;;;;;;17.55;96.80;101308.53;4947878;28;20419;-84
2021/09/18 09:37:38;;;;;;;22.33;17.70;;;;;;;17.56;95.01;101308.34;4920670;29;20052;-86
2021/09/18 09:40:07;;;;;;;20.33;16.70;;;;;;;17.50;95.42;101313.72;4945176;28;20130;-86
2021/09/18 09:42:44;;;;;;;23.50;16.83;;;;;;;17.58;95.01;101313.59;4945893;28;20531;-83
2021/09/18 09:45:15;;;;;;;24.33;17.20;;;;;;;17.60;94.38;101308.78;4942477;28;20061;-84
2021/09/18 09:47:42;;;;;;;21.27;16.65;;;;;;;17.58;94.15;101313.59;4945686;28;20074;-83
2021/09/18 09:50:08;;;;;;;21.60;15.48;;;;;;;17.60;94.54;101315.03;4943953;28;20043;-86
2021/09/18 09:52:36;;;;;;;20.33;14.40;;;;;;;17.73;94.48;101308.88;4947887;28;20044;-85
2021/09/18 09:55:15;;;;;;;18.25;14.60;;;;;;;17.85;93.44;101301.03;4946364;28;20047;-87
2021/09/18 09:57:43;;;;;;;19.25;15.25;;;;;;;17.82;91.67;101317.75;4939698;28;20111;-84
2021/09/18 10:00:14;;;;;;;19.55;15.77;;;;;;;17.87;92.85;101317.97;4935425;28;20437;-85
2021/09/18 10:02:42;;;;;;;16.88;13.65;;;;;;;18.09;94.35;101312.44;4934549;28;20119;-87
2021/09/18 10:05:10;;;;;;;16.77;14.20;;;;;;;18.18;91.36;101320.25;4948748;28;20065;-83
2021/09/18 10:07:36;;;;;;;15.93;12.98;;;;;;;18.25;90.49;101312.13;4953235;28;20065;-82
2021/09/18 10:10:07;;;;;;;16.55;13.45;;;;;;;18.17;89.04;101313.13;4948608;28;20071;-83
2021/09/18 10:12:33;;;;;;;16.08;12.07;;;;;;;18.08;89.99;101317.03;4932978;28;20152;-84
2021/09/18 10:15:04;;;;;;;15.50;11.93;;;;;;;18.03;90.69;101311.38;4934536;28;20490;-88
2021/09/18 10:17:32;;;;;;;19.92;12.88;;;;;;;17.97;90.17;101313.00;4946244;28;20065;-85
2021/09/18 10:20:13;;;;;;;15.38;12.90;;;;;;;17.96;90.45;101318.66;4942799;28;20043;-86
2021/09/18 10:25:33;;;;;;;15.02;11.68;;;;;;;18.00;90.59;101315.31;4943981;28;20081;-85
2021/09/18 10:28:11;;;;;;;14.93;11.27;;;;;;;18.10;89.75;101314.16;4935648;28;21071;-84
2021/09/18 10:30:56;;;;;;;16.30;11.63;;;;;;;18.10;89.20;101309.53;4940831;28;20134;-84
2021/09/18 10:33:36;;;;;;;13.77;9.70;;;;;;;18.22;89.35;101312.53;4942881;28;20055;-84
2021/09/18 10:36:09;;;;;;;13.70;10.68;;;;;;;18.36;87.18;101305.28;4942486;28;20051;-86
2021/09/18 10:38:43;;;;;;;14.52;10.00;;;;;;;18.48;86.69;101303.63;4948594;28;20059;-84
2021/09/18 10:41:15;;;;;;;15.70;11.50;;;;;;;18.46;86.01;101305.72;4942361;28;20055;-85
2021/09/18 10:43:52;;;;;;;14.77;10.93;;;;;;;18.48;86.25;101300.91;4944633;28;20522;-88
2021/09/18 10:46:38;;;;;;;13.45;10.65;;;;;;;18.57;85.84;101298.84;4949655;28;20053;-87
2021/09/18 10:49:04;;;;;;;14.18;10.07;;;;;;;18.54;85.43;101300.09;4959189;28;20039;-83
2021/09/18 10:51:40;;;;;;;15.15;10.88;;;;;;;18.54;85.74;101299.28;4960830;28;20066;-86
2021/09/18 10:54:06;;;;;;;18.05;12.13;;;;;;;18.61;85.41;101291.97;4946940;28;20069;-83
2021/09/18 10:57:04;;;;;;;14.52;10.60;;;;;;;18.66;85.61;101301.16;4944476;28;20102;-84
2021/09/18 10:59:42;;;;;;;14.18;10.30;;;;;;;18.78;85.81;101296.00;4942669;28;20127;-85
2021/09/18 11:02:29;;;;;;;13.35;10.07;;;;;;;18.91;83.91;101301.47;4942067;28;20557;-84